sensor_id;sensor_type;location;lat;lon;timestamp;P1;durP1;ratioP1;P2;durP2;ratioP2
11771;SDS011;12556;55.748;13.194;2024-03-23T00:54:57;16.00;;;4.80;;
11771;SDS011;12556;55.748;13.194;2024-03-23T00:57:23;20.83;;;5.07;;
11771;SDS011;12556;55.748;13.194;2024-03-23T00:59:50;16.27;;;3.97;;
11771;SDS011;12556;55.748;13.194;2024-03-23T01:02:16;12.70;;;4.27;;
11771;SDS011;12556;55.748;13.194;2024-03-23T01:04:43;19.37;;;4.37;;
11771;SDS011;12556;55.748;13.194;2024-03-23T01:07:09;17.20;;;4.00;;
11771;SDS011;12556;55.748;13.194;2024-03-23T01:09:36;18.67;;;4.03;;
11771;SDS011;12556;55.748;13.194;2024-03-23T01:12:05;21.57;;;4.53;;
11771;SDS011;12556;55.748;13.194;2024-03-23T01:14:32;25.43;;;4.93;;
11771;SDS011;12556;55.748;13.194;2024-03-23T01:16:58;18.83;;;4.23;;
11771;SDS011;12556;55.748;13.194;2024-03-23T01:19:24;19.50;;;4.77;;
11771;SDS011;12556;55.748;13.194;2024-03-23T01:21:50;15.13;;;5.17;;
11771;SDS011;12556;55.748;13.194;2024-03-23T01:24:17;18.57;;;3.87;;
11771;SDS011;12556;55.748;13.194;2024-03-23T01:26:43;18.37;;;4.00;;
11771;SDS011;12556;55.748;13.194;2024-03-23T01:29:11;19.93;;;4.13;;
11771;SDS011;12556;55.748;13.194;2024-03-23T01:31:37;16.50;;;4.93;;
11771;SDS011;12556;55.748;13.194;2024-03-23T01:34:03;21.70;;;5.17;;
11771;SDS011;12556;55.748;13.194;2024-03-23T01:36:29;18.53;;;5.67;;
11771;SDS011;12556;55.748;13.194;2024-03-23T01:38:56;19.30;;;4.90;;
11771;SDS011;12556;55.748;13.194;2024-03-23T01:41:23;16.70;;;4.50;;
11771;SDS011;12556;55.748;13.194;2024-03-23T01:43:50;17.93;;;4.40;;
11771;SDS011;12556;55.748;13.194;2024-03-23T01:46:18;20.50;;;5.27;;
11771;SDS011;12556;55.748;13.194;2024-03-23T01:48:45;20.43;;;5.00;;
11771;SDS011;12556;55.748;13.194;2024-03-23T01:51:11;29.80;;;5.30;;
11771;SDS011;12556;55.748;13.194;2024-03-23T01:53:39;16.27;;;4.23;;
11771;SDS011;12556;55.748;13.194;2024-03-23T01:56:04;18.20;;;5.30;;
11771;SDS011;12556;55.748;13.194;2024-03-23T01:58:32;17.53;;;5.00;;
11771;SDS011;12556;55.748;13.194;2024-03-23T02:00:57;19.73;;;4.90;;
11771;SDS011;12556;55.748;13.194;2024-03-23T02:03:26;21.63;;;4.60;;
11771;SDS011;12556;55.748;13.194;2024-03-23T02:05:53;20.33;;;5.10;;
11771;SDS011;12556;55.748;13.194;2024-03-23T02:08:21;19.60;;;5.10;;
11771;SDS011;12556;55.748;13.194;2024-03-23T02:10:48;23.07;;;5.43;;
11771;SDS011;12556;55.748;13.194;2024-03-23T02:13:15;20.63;;;5.17;;
11771;SDS011;12556;55.748;13.194;2024-03-23T02:15:42;19.23;;;4.40;;
11771;SDS011;12556;55.748;13.194;2024-03-23T02:18:09;17.67;;;5.50;;
11771;SDS011;12556;55.748;13.194;2024-03-23T02:20:37;19.20;;;5.60;;
11771;SDS011;12556;55.748;13.194;2024-03-23T02:23:05;18.80;;;4.97;;
11771;SDS011;12556;55.748;13.194;2024-03-23T02:25:37;18.60;;;5.23;;
11771;SDS011;12556;55.748;13.194;2024-03-23T02:28:05;20.50;;;5.47;;
11771;SDS011;12556;55.748;13.194;2024-03-23T02:30:30;22.30;;;5.20;;
11771;SDS011;12556;55.748;13.194;2024-03-23T02:32:57;19.83;;;6.00;;
11771;SDS011;12556;55.748;13.194;2024-03-23T02:35:23;19.30;;;6.07;;
11771;SDS011;12556;55.748;13.194;2024-03-23T02:37:50;18.47;;;5.90;;
11771;SDS011;12556;55.748;13.194;2024-03-23T02:40:17;22.37;;;5.10;;
11771;SDS011;12556;55.748;13.194;2024-03-23T02:42:44;22.47;;;5.27;;
11771;SDS011;12556;55.748;13.194;2024-03-23T02:45:10;22.33;;;5.20;;
11771;SDS011;12556;55.748;13.194;2024-03-23T02:47:37;23.53;;;5.00;;
11771;SDS011;12556;55.748;13.194;2024-03-23T02:50:03;16.23;;;5.17;;
11771;SDS011;12556;55.748;13.194;2024-03-23T02:52:30;23.00;;;5.70;;
11771;SDS011;12556;55.748;13.194;2024-03-23T02:54:56;22.87;;;5.37;;
11771;SDS011;12556;55.748;13.194;2024-03-23T02:57:24;26.60;;;6.47;;
11771;SDS011;12556;55.748;13.194;2024-03-23T02:59:50;22.00;;;5.57;;
11771;SDS011;12556;55.748;13.194;2024-03-23T03:02:17;15.50;;;5.23;;
11771;SDS011;12556;55.748;13.194;2024-03-23T03:04:43;19.20;;;4.80;;
11771;SDS011;12556;55.748;13.194;2024-03-23T03:07:10;20.03;;;5.77;;
11771;SDS011;12556;55.748;13.194;2024-03-23T03:09:35;26.27;;;6.37;;
11771;SDS011;12556;55.748;13.194;2024-03-23T03:12:04;19.33;;;5.57;;
11771;SDS011;12556;55.748;13.194;2024-03-23T03:14:31;20.77;;;6.17;;
11771;SDS011;12556;55.748;13.194;2024-03-23T03:16:58;26.73;;;6.47;;
11771;SDS011;12556;55.748;13.194;2024-03-23T03:19:24;18.73;;;5.23;;
11771;SDS011;12556;55.748;13.194;2024-03-23T03:21:51;23.20;;;5.83;;
11771;SDS011;12556;55.748;13.194;2024-03-23T03:24:16;25.23;;;6.23;;
11771;SDS011;12556;55.748;13.194;2024-03-23T03:26:43;26.07;;;5.53;;
11771;SDS011;12556;55.748;13.194;2024-03-23T03:29:09;20.40;;;6.00;;
11771;SDS011;12556;55.748;13.194;2024-03-23T03:31:38;24.73;;;6.13;;
11771;SDS011;12556;55.748;13.194;2024-03-23T03:34:04;23.77;;;5.57;;
11771;SDS011;12556;55.748;13.194;2024-03-23T03:36:31;25.40;;;6.60;;
11771;SDS011;12556;55.748;13.194;2024-03-23T03:38:56;21.83;;;5.57;;
11771;SDS011;12556;55.748;13.194;2024-03-23T03:41:23;24.47;;;5.77;;
11771;SDS011;12556;55.748;13.194;2024-03-23T03:43:49;25.03;;;5.73;;
11771;SDS011;12556;55.748;13.194;2024-03-23T03:46:16;20.10;;;5.67;;
11771;SDS011;12556;55.748;13.194;2024-03-23T03:48:43;17.50;;;5.13;;
11771;SDS011;12556;55.748;13.194;2024-03-23T03:51:12;29.03;;;7.00;;
11771;SDS011;12556;55.748;13.194;2024-03-23T03:53:38;38.30;;;6.63;;
11771;SDS011;12556;55.748;13.194;2024-03-23T03:56:05;23.13;;;6.27;;
11771;SDS011;12556;55.748;13.194;2024-03-23T03:58:32;29.13;;;6.73;;
11771;SDS011;12556;55.748;13.194;2024-03-23T04:00:58;23.73;;;6.10;;
11771;SDS011;12556;55.748;13.194;2024-03-23T04:03:24;21.53;;;5.87;;
11771;SDS011;12556;55.748;13.194;2024-03-23T04:05:52;27.97;;;6.40;;
11771;SDS011;12556;55.748;13.194;2024-03-23T04:08:19;26.23;;;5.30;;
11771;SDS011;12556;55.748;13.194;2024-03-23T04:10:46;23.90;;;6.50;;
11771;SDS011;12556;55.748;13.194;2024-03-23T04:13:12;21.47;;;5.80;;
11771;SDS011;12556;55.748;13.194;2024-03-23T04:15:39;22.60;;;5.23;;
11771;SDS011;12556;55.748;13.194;2024-03-23T04:18:05;20.53;;;6.03;;
11771;SDS011;12556;55.748;13.194;2024-03-23T04:20:31;26.73;;;6.70;;
11771;SDS011;12556;55.748;13.194;2024-03-23T04:22:59;22.57;;;5.10;;
11771;SDS011;12556;55.748;13.194;2024-03-23T04:25:26;17.97;;;5.07;;
11771;SDS011;12556;55.748;13.194;2024-03-23T04:27:52;28.60;;;5.37;;
11771;SDS011;12556;55.748;13.194;2024-03-23T04:30:18;27.03;;;5.63;;
11771;SDS011;12556;55.748;13.194;2024-03-23T04:32:44;24.03;;;5.77;;
11771;SDS011;12556;55.748;13.194;2024-03-23T04:35:11;26.43;;;6.10;;
11771;SDS011;12556;55.748;13.194;2024-03-23T04:37:38;19.17;;;5.07;;
11771;SDS011;12556;55.748;13.194;2024-03-23T04:40:08;26.80;;;6.33;;
11771;SDS011;12556;55.748;13.194;2024-03-23T04:42:36;22.07;;;5.57;;
11771;SDS011;12556;55.748;13.194;2024-03-23T04:45:03;28.17;;;5.47;;
11771;SDS011;12556;55.748;13.194;2024-03-23T04:47:32;34.77;;;6.63;;
11771;SDS011;12556;55.748;13.194;2024-03-23T04:50:00;24.87;;;4.77;;
11771;SDS011;12556;55.748;13.194;2024-03-23T04:52:28;23.73;;;5.03;;
11771;SDS011;12556;55.748;13.194;2024-03-23T04:54:54;25.00;;;4.90;;
11771;SDS011;12556;55.748;13.194;2024-03-23T04:57:23;31.07;;;6.17;;
11771;SDS011;12556;55.748;13.194;2024-03-23T04:59:48;36.80;;;6.77;;
11771;SDS011;12556;55.748;13.194;2024-03-23T05:02:15;28.60;;;6.23;;
11771;SDS011;12556;55.748;13.194;2024-03-23T05:04:41;22.13;;;6.23;;
11771;SDS011;12556;55.748;13.194;2024-03-23T05:07:08;26.03;;;5.13;;
11771;SDS011;12556;55.748;13.194;2024-03-23T05:09:34;24.63;;;6.10;;
11771;SDS011;12556;55.748;13.194;2024-03-23T05:12:00;27.40;;;7.07;;
11771;SDS011;12556;55.748;13.194;2024-03-23T05:14:28;26.63;;;5.70;;
11771;SDS011;12556;55.748;13.194;2024-03-23T05:16:55;27.43;;;6.33;;
11771;SDS011;12556;55.748;13.194;2024-03-23T05:19:21;32.17;;;5.30;;
11771;SDS011;12556;55.748;13.194;2024-03-23T05:21:48;31.07;;;6.60;;
11771;SDS011;12556;55.748;13.194;2024-03-23T05:24:14;23.87;;;5.67;;
11771;SDS011;12556;55.748;13.194;2024-03-23T05:26:41;28.70;;;5.33;;
11771;SDS011;12556;55.748;13.194;2024-03-23T05:29:07;27.40;;;6.47;;
11771;SDS011;12556;55.748;13.194;2024-03-23T05:31:37;24.43;;;6.23;;
11771;SDS011;12556;55.748;13.194;2024-03-23T05:34:03;18.40;;;4.80;;
11771;SDS011;12556;55.748;13.194;2024-03-23T05:36:30;27.60;;;5.97;;
11771;SDS011;12556;55.748;13.194;2024-03-23T05:38:57;24.87;;;5.13;;
11771;SDS011;12556;55.748;13.194;2024-03-23T05:41:24;23.00;;;6.57;;
11771;SDS011;12556;55.748;13.194;2024-03-23T05:43:50;31.73;;;5.93;;
11771;SDS011;12556;55.748;13.194;2024-03-23T05:46:16;22.57;;;5.43;;
11771;SDS011;12556;55.748;13.194;2024-03-23T05:48:44;27.63;;;6.17;;
11771;SDS011;12556;55.748;13.194;2024-03-23T05:51:11;29.20;;;5.80;;
11771;SDS011;12556;55.748;13.194;2024-03-23T05:53:37;19.63;;;4.97;;
11771;SDS011;12556;55.748;13.194;2024-03-23T05:56:04;21.93;;;5.53;;
11771;SDS011;12556;55.748;13.194;2024-03-23T05:58:31;26.63;;;6.53;;
11771;SDS011;12556;55.748;13.194;2024-03-23T06:00:58;24.63;;;6.70;;
11771;SDS011;12556;55.748;13.194;2024-03-23T06:03:25;24.30;;;5.63;;
11771;SDS011;12556;55.748;13.194;2024-03-23T06:05:53;27.10;;;6.90;;
11771;SDS011;12556;55.748;13.194;2024-03-23T06:08:19;25.90;;;6.33;;
11771;SDS011;12556;55.748;13.194;2024-03-23T06:10:46;21.93;;;6.70;;
11771;SDS011;12556;55.748;13.194;2024-03-23T06:13:11;29.87;;;7.17;;
11771;SDS011;12556;55.748;13.194;2024-03-23T06:15:38;29.53;;;5.70;;
11771;SDS011;12556;55.748;13.194;2024-03-23T06:18:04;19.73;;;5.70;;
11771;SDS011;12556;55.748;13.194;2024-03-23T06:20:32;23.93;;;5.17;;
11771;SDS011;12556;55.748;13.194;2024-03-23T06:23:00;23.57;;;6.50;;
11771;SDS011;12556;55.748;13.194;2024-03-23T06:25:27;31.07;;;6.77;;
11771;SDS011;12556;55.748;13.194;2024-03-23T06:27:53;22.20;;;5.47;;
11771;SDS011;12556;55.748;13.194;2024-03-23T06:30:20;24.53;;;6.07;;
11771;SDS011;12556;55.748;13.194;2024-03-23T06:32:45;24.97;;;6.30;;
11771;SDS011;12556;55.748;13.194;2024-03-23T06:35:12;26.37;;;5.50;;
11771;SDS011;12556;55.748;13.194;2024-03-23T06:37:38;27.37;;;6.43;;
11771;SDS011;12556;55.748;13.194;2024-03-23T06:40:08;21.07;;;5.33;;
11771;SDS011;12556;55.748;13.194;2024-03-23T06:42:35;22.53;;;6.03;;
11771;SDS011;12556;55.748;13.194;2024-03-23T06:45:02;26.27;;;6.47;;
11771;SDS011;12556;55.748;13.194;2024-03-23T06:47:28;27.07;;;6.13;;
11771;SDS011;12556;55.748;13.194;2024-03-23T06:49:55;22.33;;;5.60;;
11771;SDS011;12556;55.748;13.194;2024-03-23T06:52:21;20.97;;;6.00;;
11771;SDS011;12556;55.748;13.194;2024-03-23T06:54:48;27.60;;;6.10;;
11771;SDS011;12556;55.748;13.194;2024-03-23T06:57:15;26.27;;;5.40;;
11771;SDS011;12556;55.748;13.194;2024-03-23T06:59:42;27.47;;;6.03;;
11771;SDS011;12556;55.748;13.194;2024-03-23T07:02:08;27.80;;;5.70;;
11771;SDS011;12556;55.748;13.194;2024-03-23T07:04:35;27.33;;;6.23;;
11771;SDS011;12556;55.748;13.194;2024-03-23T07:07:01;23.17;;;6.07;;
11771;SDS011;12556;55.748;13.194;2024-03-23T07:09:28;20.93;;;6.17;;
11771;SDS011;12556;55.748;13.194;2024-03-23T07:11:54;22.10;;;5.40;;
11771;SDS011;12556;55.748;13.194;2024-03-23T07:14:23;28.20;;;6.37;;
11771;SDS011;12556;55.748;13.194;2024-03-23T07:16:49;21.63;;;5.80;;
11771;SDS011;12556;55.748;13.194;2024-03-23T07:19:17;15.13;;;4.60;;
11771;SDS011;12556;55.748;13.194;2024-03-23T07:21:43;18.30;;;5.60;;
11771;SDS011;12556;55.748;13.194;2024-03-23T07:24:10;24.33;;;5.47;;
11771;SDS011;12556;55.748;13.194;2024-03-23T07:26:36;19.37;;;5.73;;
11771;SDS011;12556;55.748;13.194;2024-03-23T07:29:03;25.37;;;6.27;;
11771;SDS011;12556;55.748;13.194;2024-03-23T07:31:31;21.83;;;6.20;;
11771;SDS011;12556;55.748;13.194;2024-03-23T07:33:58;26.83;;;6.03;;
11771;SDS011;12556;55.748;13.194;2024-03-23T07:36:24;19.37;;;6.27;;
11771;SDS011;12556;55.748;13.194;2024-03-23T07:38:50;18.77;;;5.83;;
11771;SDS011;12556;55.748;13.194;2024-03-23T07:41:17;19.60;;;5.77;;
11771;SDS011;12556;55.748;13.194;2024-03-23T07:43:44;26.80;;;6.37;;
11771;SDS011;12556;55.748;13.194;2024-03-23T07:46:11;18.37;;;5.77;;
11771;SDS011;12556;55.748;13.194;2024-03-23T07:48:39;20.97;;;6.10;;
11771;SDS011;12556;55.748;13.194;2024-03-23T07:51:08;22.50;;;6.20;;
11771;SDS011;12556;55.748;13.194;2024-03-23T07:53:35;18.13;;;6.67;;
11771;SDS011;12556;55.748;13.194;2024-03-23T07:56:03;21.67;;;6.17;;
11771;SDS011;12556;55.748;13.194;2024-03-23T07:58:31;21.57;;;5.93;;
11771;SDS011;12556;55.748;13.194;2024-03-23T08:01:03;27.17;;;6.50;;
11771;SDS011;12556;55.748;13.194;2024-03-23T08:03:30;16.33;;;6.03;;
11771;SDS011;12556;55.748;13.194;2024-03-23T08:05:58;19.23;;;6.17;;
11771;SDS011;12556;55.748;13.194;2024-03-23T08:08:32;23.97;;;6.13;;
11771;SDS011;12556;55.748;13.194;2024-03-23T08:10:58;18.00;;;5.10;;
11771;SDS011;12556;55.748;13.194;2024-03-23T08:13:24;19.00;;;6.23;;
11771;SDS011;12556;55.748;13.194;2024-03-23T08:15:51;20.53;;;6.53;;
11771;SDS011;12556;55.748;13.194;2024-03-23T08:18:18;20.07;;;6.37;;
11771;SDS011;12556;55.748;13.194;2024-03-23T08:20:44;26.77;;;6.80;;
11771;SDS011;12556;55.748;13.194;2024-03-23T08:23:12;17.93;;;5.90;;
11771;SDS011;12556;55.748;13.194;2024-03-23T08:25:38;20.17;;;5.87;;
11771;SDS011;12556;55.748;13.194;2024-03-23T08:28:05;17.10;;;5.80;;
11771;SDS011;12556;55.748;13.194;2024-03-23T08:30:34;17.60;;;5.83;;
11771;SDS011;12556;55.748;13.194;2024-03-23T08:33:01;17.60;;;5.47;;
11771;SDS011;12556;55.748;13.194;2024-03-23T08:35:27;19.60;;;6.53;;
11771;SDS011;12556;55.748;13.194;2024-03-23T08:37:54;22.30;;;6.10;;
11771;SDS011;12556;55.748;13.194;2024-03-23T08:40:21;19.53;;;5.77;;
11771;SDS011;12556;55.748;13.194;2024-03-23T08:42:48;17.83;;;5.43;;
11771;SDS011;12556;55.748;13.194;2024-03-23T08:45:14;21.87;;;6.57;;
11771;SDS011;12556;55.748;13.194;2024-03-23T08:47:41;18.80;;;5.70;;
11771;SDS011;12556;55.748;13.194;2024-03-23T08:50:07;17.43;;;5.80;;
11771;SDS011;12556;55.748;13.194;2024-03-23T08:52:34;15.93;;;5.23;;
11771;SDS011;12556;55.748;13.194;2024-03-23T08:55:00;20.03;;;6.17;;
11771;SDS011;12556;55.748;13.194;2024-03-23T08:57:28;23.27;;;6.10;;
11771;SDS011;12556;55.748;13.194;2024-03-23T08:59:54;18.53;;;5.53;;
11771;SDS011;12556;55.748;13.194;2024-03-23T09:02:21;16.60;;;5.03;;
11771;SDS011;12556;55.748;13.194;2024-03-23T09:04:47;22.60;;;6.93;;
11771;SDS011;12556;55.748;13.194;2024-03-23T09:07:14;20.00;;;5.07;;
11771;SDS011;12556;55.748;13.194;2024-03-23T09:09:40;21.67;;;5.83;;
11771;SDS011;12556;55.748;13.194;2024-03-23T09:12:07;19.47;;;4.63;;
11771;SDS011;12556;55.748;13.194;2024-03-23T09:14:34;21.10;;;5.13;;
11771;SDS011;12556;55.748;13.194;2024-03-23T09:17:01;16.63;;;4.83;;
11771;SDS011;12556;55.748;13.194;2024-03-23T09:19:28;23.67;;;5.70;;
11771;SDS011;12556;55.748;13.194;2024-03-23T09:21:55;20.40;;;5.80;;
11771;SDS011;12556;55.748;13.194;2024-03-23T09:24:21;18.00;;;4.70;;
11771;SDS011;12556;55.748;13.194;2024-03-23T09:26:48;20.07;;;6.07;;
11771;SDS011;12556;55.748;13.194;2024-03-23T09:29:13;17.67;;;5.97;;
11771;SDS011;12556;55.748;13.194;2024-03-23T09:31:42;22.73;;;5.77;;
11771;SDS011;12556;55.748;13.194;2024-03-23T09:34:08;17.37;;;4.60;;
11771;SDS011;12556;55.748;13.194;2024-03-23T09:36:34;20.20;;;6.13;;
11771;SDS011;12556;55.748;13.194;2024-03-23T09:39:00;22.17;;;5.87;;
11771;SDS011;12556;55.748;13.194;2024-03-23T09:41:28;17.23;;;5.57;;
11771;SDS011;12556;55.748;13.194;2024-03-23T09:43:54;20.97;;;5.17;;
11771;SDS011;12556;55.748;13.194;2024-03-23T09:46:21;15.23;;;4.60;;
11771;SDS011;12556;55.748;13.194;2024-03-23T09:48:49;16.97;;;4.93;;
11771;SDS011;12556;55.748;13.194;2024-03-23T09:51:16;16.37;;;4.67;;
11771;SDS011;12556;55.748;13.194;2024-03-23T09:53:42;23.87;;;5.33;;
11771;SDS011;12556;55.748;13.194;2024-03-23T09:56:08;17.37;;;4.90;;
11771;SDS011;12556;55.748;13.194;2024-03-23T09:58:34;17.80;;;5.60;;
11771;SDS011;12556;55.748;13.194;2024-03-23T10:01:02;19.90;;;5.47;;
11771;SDS011;12556;55.748;13.194;2024-03-23T10:03:32;13.70;;;5.30;;
11771;SDS011;12556;55.748;13.194;2024-03-23T10:06:09;17.03;;;5.27;;
11771;SDS011;12556;55.748;13.194;2024-03-23T10:08:35;15.97;;;5.03;;
11771;SDS011;12556;55.748;13.194;2024-03-23T10:11:11;17.67;;;5.27;;
11771;SDS011;12556;55.748;13.194;2024-03-23T10:13:38;17.20;;;4.97;;
11771;SDS011;12556;55.748;13.194;2024-03-23T10:16:08;16.93;;;4.37;;
11771;SDS011;12556;55.748;13.194;2024-03-23T10:18:37;13.20;;;4.30;;
11771;SDS011;12556;55.748;13.194;2024-03-23T10:21:09;19.40;;;5.67;;
11771;SDS011;12556;55.748;13.194;2024-03-23T10:23:36;12.40;;;4.03;;
11771;SDS011;12556;55.748;13.194;2024-03-23T10:26:13;12.70;;;4.00;;
11771;SDS011;12556;55.748;13.194;2024-03-23T10:28:51;12.60;;;4.63;;
11771;SDS011;12556;55.748;13.194;2024-03-23T10:31:19;15.27;;;4.07;;
11771;SDS011;12556;55.748;13.194;2024-03-23T10:33:45;12.23;;;4.60;;
11771;SDS011;12556;55.748;13.194;2024-03-23T10:36:14;12.93;;;4.07;;
11771;SDS011;12556;55.748;13.194;2024-03-23T10:38:40;16.63;;;4.30;;
11771;SDS011;12556;55.748;13.194;2024-03-23T10:41:09;18.60;;;5.00;;
11771;SDS011;12556;55.748;13.194;2024-03-23T10:43:36;15.27;;;4.20;;
11771;SDS011;12556;55.748;13.194;2024-03-23T10:46:02;9.90;;;3.93;;
11771;SDS011;12556;55.748;13.194;2024-03-23T10:48:29;12.57;;;4.17;;
11771;SDS011;12556;55.748;13.194;2024-03-23T10:50:56;17.17;;;4.57;;
11771;SDS011;12556;55.748;13.194;2024-03-23T10:53:26;13.10;;;4.33;;
11771;SDS011;12556;55.748;13.194;2024-03-23T10:55:53;17.00;;;4.10;;
11771;SDS011;12556;55.748;13.194;2024-03-23T10:58:21;10.87;;;3.43;;
11771;SDS011;12556;55.748;13.194;2024-03-23T11:00:52;13.33;;;3.40;;
11771;SDS011;12556;55.748;13.194;2024-03-23T11:03:29;12.23;;;3.53;;
11771;SDS011;12556;55.748;13.194;2024-03-23T11:05:56;12.50;;;3.17;;
11771;SDS011;12556;55.748;13.194;2024-03-23T11:08:31;13.00;;;3.57;;
11771;SDS011;12556;55.748;13.194;2024-03-23T11:11:14;13.97;;;3.60;;
11771;SDS011;12556;55.748;13.194;2024-03-23T11:13:43;11.63;;;3.00;;
11771;SDS011;12556;55.748;13.194;2024-03-23T11:16:12;10.37;;;3.47;;
11771;SDS011;12556;55.748;13.194;2024-03-23T11:18:40;12.50;;;3.03;;
11771;SDS011;12556;55.748;13.194;2024-03-23T11:21:07;13.30;;;3.53;;
11771;SDS011;12556;55.748;13.194;2024-03-23T11:23:35;10.37;;;3.40;;
11771;SDS011;12556;55.748;13.194;2024-03-23T11:26:01;14.90;;;3.73;;
11771;SDS011;12556;55.748;13.194;2024-03-23T11:28:29;11.30;;;3.27;;
11771;SDS011;12556;55.748;13.194;2024-03-23T11:30:55;9.67;;;2.90;;
11771;SDS011;12556;55.748;13.194;2024-03-23T11:33:22;13.13;;;3.50;;
11771;SDS011;12556;55.748;13.194;2024-03-23T11:35:48;11.93;;;3.40;;
11771;SDS011;12556;55.748;13.194;2024-03-23T11:38:16;12.70;;;3.70;;
11771;SDS011;12556;55.748;13.194;2024-03-23T11:40:46;10.27;;;3.60;;
11771;SDS011;12556;55.748;13.194;2024-03-23T11:43:14;11.23;;;3.27;;
11771;SDS011;12556;55.748;13.194;2024-03-23T11:45:42;10.27;;;3.27;;
11771;SDS011;12556;55.748;13.194;2024-03-23T11:48:10;10.13;;;3.40;;
11771;SDS011;12556;55.748;13.194;2024-03-23T11:50:37;11.80;;;3.67;;
11771;SDS011;12556;55.748;13.194;2024-03-23T11:53:14;11.53;;;3.30;;
11771;SDS011;12556;55.748;13.194;2024-03-23T11:55:45;10.13;;;2.47;;
11771;SDS011;12556;55.748;13.194;2024-03-23T11:58:13;11.00;;;3.20;;
11771;SDS011;12556;55.748;13.194;2024-03-23T12:00:40;13.33;;;3.60;;
11771;SDS011;12556;55.748;13.194;2024-03-23T12:03:07;13.80;;;3.03;;
11771;SDS011;12556;55.748;13.194;2024-03-23T12:05:35;12.63;;;3.87;;
11771;SDS011;12556;55.748;13.194;2024-03-23T12:08:16;17.40;;;4.03;;
11771;SDS011;12556;55.748;13.194;2024-03-23T12:10:44;12.43;;;3.00;;
11771;SDS011;12556;55.748;13.194;2024-03-23T12:13:14;12.10;;;3.00;;
11771;SDS011;12556;55.748;13.194;2024-03-23T12:15:42;14.93;;;3.57;;
11771;SDS011;12556;55.748;13.194;2024-03-23T12:18:10;8.87;;;3.13;;
11771;SDS011;12556;55.748;13.194;2024-03-23T12:20:36;11.37;;;3.27;;
11771;SDS011;12556;55.748;13.194;2024-03-23T12:23:07;10.43;;;3.30;;
11771;SDS011;12556;55.748;13.194;2024-03-23T12:25:34;9.53;;;3.43;;
11771;SDS011;12556;55.748;13.194;2024-03-23T12:28:03;11.73;;;3.13;;
11771;SDS011;12556;55.748;13.194;2024-03-23T12:30:31;10.97;;;3.40;;
11771;SDS011;12556;55.748;13.194;2024-03-23T12:32:58;11.53;;;3.47;;
11771;SDS011;12556;55.748;13.194;2024-03-23T12:35:24;11.20;;;3.53;;
11771;SDS011;12556;55.748;13.194;2024-03-23T12:37:51;15.17;;;3.93;;
11771;SDS011;12556;55.748;13.194;2024-03-23T12:40:17;10.73;;;3.20;;
11771;SDS011;12556;55.748;13.194;2024-03-23T12:42:44;13.47;;;3.20;;
11771;SDS011;12556;55.748;13.194;2024-03-23T12:45:11;9.97;;;3.07;;
11771;SDS011;12556;55.748;13.194;2024-03-23T12:47:38;8.13;;;3.43;;
11771;SDS011;12556;55.748;13.194;2024-03-23T12:50:04;11.30;;;3.30;;
11771;SDS011;12556;55.748;13.194;2024-03-23T12:52:32;11.27;;;3.20;;
11771;SDS011;12556;55.748;13.194;2024-03-23T12:54:58;12.20;;;3.10;;
11771;SDS011;12556;55.748;13.194;2024-03-23T12:57:25;10.07;;;2.80;;
11771;SDS011;12556;55.748;13.194;2024-03-23T12:59:51;9.53;;;2.87;;
11771;SDS011;12556;55.748;13.194;2024-03-23T13:02:20;9.63;;;2.83;;
11771;SDS011;12556;55.748;13.194;2024-03-23T13:04:46;9.67;;;2.87;;
11771;SDS011;12556;55.748;13.194;2024-03-23T13:07:16;8.07;;;2.70;;
11771;SDS011;12556;55.748;13.194;2024-03-23T13:09:44;8.00;;;2.27;;
11771;SDS011;12556;55.748;13.194;2024-03-23T13:12:11;7.43;;;1.83;;
11771;SDS011;12556;55.748;13.194;2024-03-23T13:14:37;6.77;;;2.27;;
11771;SDS011;12556;55.748;13.194;2024-03-23T13:17:04;7.10;;;1.97;;
11771;SDS011;12556;55.748;13.194;2024-03-23T13:19:32;4.87;;;1.87;;
11771;SDS011;12556;55.748;13.194;2024-03-23T13:21:59;8.03;;;2.43;;
11771;SDS011;12556;55.748;13.194;2024-03-23T13:24:26;10.33;;;2.50;;
11771;SDS011;12556;55.748;13.194;2024-03-23T13:26:53;8.63;;;2.53;;
11771;SDS011;12556;55.748;13.194;2024-03-23T13:29:20;7.33;;;2.83;;
11771;SDS011;12556;55.748;13.194;2024-03-23T13:31:48;6.37;;;2.40;;
11771;SDS011;12556;55.748;13.194;2024-03-23T13:34:15;8.83;;;2.13;;
11771;SDS011;12556;55.748;13.194;2024-03-23T13:36:43;2.23;;;1.20;;
11771;SDS011;12556;55.748;13.194;2024-03-23T13:39:10;2.47;;;1.13;;
11771;SDS011;12556;55.748;13.194;2024-03-23T13:41:37;2.57;;;0.97;;
11771;SDS011;12556;55.748;13.194;2024-03-23T13:44:04;3.23;;;1.07;;
11771;SDS011;12556;55.748;13.194;2024-03-23T13:46:31;2.07;;;1.00;;
11771;SDS011;12556;55.748;13.194;2024-03-23T13:48:57;4.23;;;1.17;;
11771;SDS011;12556;55.748;13.194;2024-03-23T13:51:24;1.97;;;1.13;;
11771;SDS011;12556;55.748;13.194;2024-03-23T13:53:53;4.10;;;1.60;;
11771;SDS011;12556;55.748;13.194;2024-03-23T13:56:21;1.70;;;1.33;;
11771;SDS011;12556;55.748;13.194;2024-03-23T13:58:47;2.57;;;1.10;;
11771;SDS011;12556;55.748;13.194;2024-03-23T14:01:14;4.10;;;1.03;;
11771;SDS011;12556;55.748;13.194;2024-03-23T14:03:40;1.17;;;1.00;;
11771;SDS011;12556;55.748;13.194;2024-03-23T14:06:07;2.17;;;1.10;;
11771;SDS011;12556;55.748;13.194;2024-03-23T14:08:34;2.80;;;1.80;;
11771;SDS011;12556;55.748;13.194;2024-03-23T14:11:03;2.93;;;1.07;;
11771;SDS011;12556;55.748;13.194;2024-03-23T14:13:29;3.37;;;1.10;;
11771;SDS011;12556;55.748;13.194;2024-03-23T14:15:56;7.93;;;1.80;;
11771;SDS011;12556;55.748;13.194;2024-03-23T14:18:22;6.67;;;2.27;;
11771;SDS011;12556;55.748;13.194;2024-03-23T14:20:49;5.07;;;1.53;;
11771;SDS011;12556;55.748;13.194;2024-03-23T14:23:15;5.87;;;1.77;;
11771;SDS011;12556;55.748;13.194;2024-03-23T14:25:42;3.13;;;1.50;;
11771;SDS011;12556;55.748;13.194;2024-03-23T14:28:09;4.83;;;1.73;;
11771;SDS011;12556;55.748;13.194;2024-03-23T14:30:40;5.03;;;1.73;;
11771;SDS011;12556;55.748;13.194;2024-03-23T14:33:07;5.53;;;2.03;;
11771;SDS011;12556;55.748;13.194;2024-03-23T14:35:34;7.23;;;1.93;;
11771;SDS011;12556;55.748;13.194;2024-03-23T14:38:00;5.93;;;1.50;;
11771;SDS011;12556;55.748;13.194;2024-03-23T14:40:28;4.83;;;1.50;;
11771;SDS011;12556;55.748;13.194;2024-03-23T14:42:54;5.67;;;1.40;;
11771;SDS011;12556;55.748;13.194;2024-03-23T14:45:22;3.07;;;1.90;;
11771;SDS011;12556;55.748;13.194;2024-03-23T14:47:49;3.67;;;1.63;;
11771;SDS011;12556;55.748;13.194;2024-03-23T14:50:16;6.33;;;1.67;;
11771;SDS011;12556;55.748;13.194;2024-03-23T14:52:43;5.10;;;1.90;;
11771;SDS011;12556;55.748;13.194;2024-03-23T14:55:11;6.30;;;1.60;;
11771;SDS011;12556;55.748;13.194;2024-03-23T14:57:37;4.77;;;1.33;;
11771;SDS011;12556;55.748;13.194;2024-03-23T15:00:06;3.30;;;1.37;;
11771;SDS011;12556;55.748;13.194;2024-03-23T15:02:34;5.83;;;1.83;;
11771;SDS011;12556;55.748;13.194;2024-03-23T15:05:01;5.00;;;1.90;;
11771;SDS011;12556;55.748;13.194;2024-03-23T15:07:28;4.07;;;1.90;;
11771;SDS011;12556;55.748;13.194;2024-03-23T15:09:55;4.37;;;1.73;;
11771;SDS011;12556;55.748;13.194;2024-03-23T15:12:21;3.13;;;1.20;;
11771;SDS011;12556;55.748;13.194;2024-03-23T15:14:48;2.97;;;1.73;;
11771;SDS011;12556;55.748;13.194;2024-03-23T15:17:14;3.97;;;1.10;;